createdAt,value
2022-09-15T00:01:09.996Z,31.00
2022-09-15T00:03:36.858Z,29.33
2022-09-15T00:06:05.700Z,27.97
2022-09-15T00:08:32.682Z,27.03
2022-09-15T00:11:12.105Z,30.87
2022-09-15T00:13:40.608Z,30.67
2022-09-15T00:18:47.855Z,34.33
2022-09-15T00:21:18.619Z,30.30
2022-09-15T00:23:46.312Z,31.53
2022-09-15T00:26:17.526Z,31.70
2022-09-15T00:28:45.440Z,30.97
2022-09-15T00:31:19.315Z,25.40
2022-09-15T00:33:54.808Z,34.13
2022-09-15T00:36:22.456Z,27.43
2022-09-15T00:38:49.352Z,32.77
2022-09-15T00:41:18.384Z,27.57
2022-09-15T00:43:53.000Z,37.40
2022-09-15T00:46:26.395Z,35.00
2022-09-15T00:49:26.194Z,34.90
2022-09-15T00:51:55.523Z,28.63
2022-09-15T00:54:59.342Z,28.17
2022-09-15T00:57:52.810Z,29.20
2022-09-15T01:00:22.186Z,25.80
2022-09-15T01:02:50.814Z,28.23
2022-09-15T01:05:22.242Z,27.87
2022-09-15T01:08:17.697Z,29.73
2022-09-15T01:10:46.640Z,28.77
2022-09-15T01:13:15.238Z,23.47
2022-09-15T01:15:41.843Z,30.27
2022-09-15T01:18:20.346Z,22.60
2022-09-15T01:21:08.718Z,29.80
2022-09-15T01:23:54.943Z,23.57
2022-09-15T01:26:46.889Z,23.40
2022-09-15T01:29:39.819Z,23.87
2022-09-15T01:32:39.089Z,27.43
2022-09-15T01:35:34.415Z,24.83
2022-09-15T01:38:04.366Z,25.57
2022-09-15T01:40:37.433Z,22.07
2022-09-15T01:43:06.852Z,33.23
2022-09-15T01:45:37.623Z,21.50
2022-09-15T01:48:09.367Z,18.70
2022-09-15T01:50:42.851Z,21.70
2022-09-15T01:53:15.518Z,23.17
2022-09-15T01:55:58.211Z,21.40
2022-09-15T01:58:28.957Z,28.07
2022-09-15T02:01:21.781Z,24.00
2022-09-15T02:03:58.401Z,34.37
2022-09-15T02:06:43.226Z,25.60
2022-09-15T02:09:18.189Z,29.30
2022-09-15T02:12:01.611Z,34.67
2022-09-15T02:14:38.511Z,29.33
2022-09-15T02:17:06.006Z,35.00
2022-09-15T02:19:43.336Z,36.30
2022-09-15T02:22:23.792Z,35.77
2022-09-15T02:24:58.152Z,39.63
2022-09-15T02:27:29.099Z,44.70
2022-09-15T02:29:59.833Z,43.10
2022-09-15T02:32:28.913Z,42.67
2022-09-15T02:34:59.109Z,36.70
2022-09-15T02:37:27.752Z,42.77
2022-09-15T02:39:57.991Z,39.87
2022-09-15T02:42:27.227Z,36.67
2022-09-15T02:44:54.174Z,44.43
2022-09-15T02:49:58.279Z,42.37
2022-09-15T02:52:24.970Z,38.80
2022-09-15T02:54:52.060Z,43.20
2022-09-15T02:57:18.728Z,36.77
2022-09-15T03:00:04.988Z,42.47
2022-09-15T03:02:32.239Z,44.03
2022-09-15T03:05:01.101Z,43.15
2022-09-15T03:07:28.951Z,36.70
2022-09-15T03:09:56.005Z,35.30
2022-09-15T03:12:23.681Z,33.95
2022-09-15T03:14:51.136Z,31.65
2022-09-15T03:17:18.877Z,36.77
2022-09-15T03:19:45.572Z,32.90
2022-09-15T03:22:15.709Z,24.73
2022-09-15T03:24:42.556Z,23.90
2022-09-15T03:27:09.807Z,26.15
2022-09-15T03:29:36.461Z,22.88
2022-09-15T03:32:03.637Z,16.88
2022-09-15T03:34:30.844Z,17.98
2022-09-15T03:36:57.508Z,17.88
2022-09-15T03:39:24.820Z,17.80
2022-09-15T03:41:51.867Z,21.90
2022-09-15T03:44:18.539Z,14.10
2022-09-15T03:46:45.702Z,19.80
2022-09-15T03:49:13.169Z,20.70
2022-09-15T03:51:39.859Z,18.90
2022-09-15T03:54:06.904Z,21.20
2022-09-15T03:56:34.051Z,17.17
2022-09-15T03:59:02.549Z,23.47
2022-09-15T04:01:30.561Z,15.00
2022-09-15T04:03:58.894Z,16.45
2022-09-15T04:06:26.482Z,18.67
2022-09-15T04:08:54.307Z,15.57
2022-09-15T04:14:03.262Z,16.05
2022-09-15T04:16:30.220Z,17.33
2022-09-15T04:18:58.369Z,11.70
2022-09-15T04:21:26.784Z,13.85
2022-09-15T04:23:54.771Z,18.92
2022-09-15T04:26:31.685Z,15.45
2022-09-15T04:31:34.727Z,14.60
2022-09-15T04:34:02.195Z,16.02
2022-09-15T04:36:29.538Z,17.83
2022-09-15T04:38:57.748Z,14.52
2022-09-15T04:41:26.346Z,12.45
2022-09-15T04:43:53.401Z,16.23
2022-09-15T04:46:21.331Z,17.75
2022-09-15T04:48:49.261Z,24.30
2022-09-15T04:51:21.221Z,18.98
2022-09-15T04:53:49.495Z,24.08
2022-09-15T04:56:19.147Z,19.83
2022-09-15T04:58:51.631Z,20.73
2022-09-15T05:01:21.908Z,20.33
2022-09-15T05:03:49.692Z,19.23
2022-09-15T05:06:18.584Z,18.17
2022-09-15T05:08:50.098Z,20.45
2022-09-15T05:11:17.709Z,20.38
2022-09-15T05:13:44.822Z,21.70
2022-09-15T05:16:17.057Z,19.48
2022-09-15T05:18:45.736Z,27.83
2022-09-15T05:21:15.193Z,18.23
2022-09-15T05:29:02.513Z,19.92
2022-09-15T05:31:31.975Z,24.33
2022-09-15T05:39:16.029Z,22.60
2022-09-15T05:41:43.368Z,17.90
2022-09-15T05:44:10.348Z,22.00
2022-09-15T05:46:37.195Z,23.07
2022-09-15T05:49:03.952Z,33.07
2022-09-15T05:51:33.220Z,16.03
2022-09-15T05:56:35.814Z,21.57
2022-09-15T05:59:02.648Z,18.30
2022-09-15T06:01:31.510Z,18.75
2022-09-15T06:09:08.220Z,16.95
2022-09-15T06:14:17.441Z,16.20
2022-09-15T06:19:26.418Z,19.17
2022-09-15T06:21:54.472Z,11.27
2022-09-15T06:26:57.013Z,9.90
2022-09-15T06:34:44.467Z,12.37
2022-09-15T06:37:11.932Z,12.00
2022-09-15T06:39:39.119Z,10.23
2022-09-15T06:42:06.175Z,7.50
2022-09-15T06:44:33.304Z,8.67
2022-09-15T06:46:59.948Z,11.33
2022-09-15T06:49:26.725Z,9.63
2022-09-15T06:51:53.567Z,11.70
2022-09-15T06:54:20.343Z,7.57
2022-09-15T06:56:50.020Z,10.70
2022-09-15T06:59:17.026Z,10.67
2022-09-15T07:01:44.564Z,6.70
2022-09-15T07:04:11.317Z,9.90
2022-09-15T07:06:39.852Z,10.03
2022-09-15T07:09:07.147Z,11.73
2022-09-15T07:11:34.620Z,7.07
2022-09-15T07:14:01.406Z,5.30
2022-09-15T07:16:28.582Z,7.07
2022-09-15T07:18:57.142Z,11.80
2022-09-15T07:21:25.065Z,5.40
2022-09-15T07:23:52.417Z,6.37
2022-09-15T07:26:24.993Z,5.03
2022-09-15T07:29:01.241Z,6.93
2022-09-15T07:31:31.788Z,21.50
2022-09-15T07:34:02.303Z,57.70
2022-09-15T07:36:30.198Z,16.70
2022-09-15T07:38:57.372Z,6.80
2022-09-15T07:41:27.136Z,6.83
2022-09-15T07:43:56.747Z,7.23
2022-09-15T07:46:25.255Z,5.33
2022-09-15T07:48:56.772Z,6.70
2022-09-15T07:51:24.501Z,7.30
2022-09-15T07:53:51.899Z,5.23
2022-09-15T07:56:19.229Z,7.87
2022-09-15T07:58:47.844Z,6.53
2022-09-15T08:01:16.108Z,5.07
2022-09-15T08:03:46.675Z,9.20
2022-09-15T08:06:14.541Z,4.90
2022-09-15T08:08:44.502Z,5.80
2022-09-15T08:11:18.491Z,12.17
2022-09-15T08:13:47.627Z,5.83
2022-09-15T08:16:17.054Z,5.83
2022-09-15T08:18:44.935Z,6.90
2022-09-15T08:21:15.397Z,5.73
2022-09-15T08:23:42.560Z,4.20
2022-09-15T08:26:14.158Z,4.30
2022-09-15T08:28:42.445Z,6.80
2022-09-15T08:31:11.994Z,7.77
2022-09-15T08:33:44.552Z,4.90
2022-09-15T08:36:12.551Z,4.03
2022-09-15T08:38:44.886Z,7.60
2022-09-15T08:41:25.503Z,9.70
2022-09-15T08:44:17.287Z,6.00
2022-09-15T08:47:04.021Z,5.33
2022-09-15T08:49:58.734Z,7.90
2022-09-15T08:52:49.292Z,4.60
2022-09-15T08:55:26.383Z,10.43
2022-09-15T08:57:54.594Z,3.70
2022-09-15T09:00:21.339Z,5.87
2022-09-15T09:03:05.691Z,5.97
2022-09-15T09:05:53.531Z,2.97
2022-09-15T09:08:46.178Z,4.40
2022-09-15T09:12:11.808Z,4.13
2022-09-15T09:15:00.800Z,4.63
2022-09-15T09:17:53.784Z,5.63
2022-09-15T09:20:43.249Z,4.93
2022-09-15T09:23:15.721Z,7.60
2022-09-15T09:25:44.821Z,3.33
2022-09-15T09:28:38.999Z,25.57
2022-09-15T09:31:13.151Z,7.03
2022-09-15T09:33:53.748Z,8.17
2022-09-15T09:36:21.551Z,8.43
2022-09-15T09:38:51.292Z,6.57
2022-09-15T09:41:26.625Z,3.53
2022-09-15T09:43:56.454Z,9.53
2022-09-15T09:46:23.486Z,9.00
2022-09-15T09:48:56.365Z,5.53
2022-09-15T09:51:39.030Z,13.23
2022-09-15T09:54:16.159Z,9.10
2022-09-15T09:56:45.055Z,6.23
2022-09-15T09:59:32.184Z,5.27
2022-09-15T10:02:29.037Z,6.03
2022-09-15T10:05:17.935Z,6.83
2022-09-15T10:07:45.346Z,9.20
2022-09-15T10:10:24.351Z,4.23
2022-09-15T10:12:56.342Z,10.60
2022-09-15T10:15:29.005Z,3.90
2022-09-15T10:17:57.080Z,2.90
2022-09-15T10:20:32.583Z,5.67
2022-09-15T10:23:18.239Z,6.00
2022-09-15T10:26:01.094Z,2.97
2022-09-15T10:28:28.695Z,3.70
2022-09-15T10:31:07.292Z,4.90
2022-09-15T10:33:36.799Z,4.97
2022-09-15T10:36:18.708Z,3.67
2022-09-15T10:38:48.977Z,15.20
2022-09-15T10:41:29.934Z,9.73
2022-09-15T10:44:27.893Z,7.17
2022-09-15T10:47:29.120Z,6.27
2022-09-15T10:50:19.266Z,5.00
2022-09-15T10:53:04.437Z,5.13
2022-09-15T10:56:10.216Z,5.93
2022-09-15T10:58:45.778Z,5.47
2022-09-15T11:01:31.932Z,5.20
2022-09-15T11:04:38.959Z,2.63
2022-09-15T11:07:18.543Z,3.20
2022-09-15T11:09:58.082Z,7.57
2022-09-15T11:12:48.783Z,5.20
2022-09-15T11:15:40.269Z,3.57
2022-09-15T11:18:20.282Z,8.13
2022-09-15T11:21:05.589Z,5.30
2022-09-15T11:23:40.548Z,9.03
2022-09-15T11:26:21.144Z,3.67
2022-09-15T11:29:13.526Z,3.33
2022-09-15T11:31:44.779Z,6.67
2022-09-15T11:34:35.794Z,2.97
2022-09-15T11:37:09.541Z,6.63
2022-09-15T11:39:44.839Z,6.27
2022-09-15T11:42:18.471Z,7.93
2022-09-15T11:44:47.219Z,4.17
2022-09-15T11:47:29.945Z,2.20
2022-09-15T11:50:39.958Z,5.23
2022-09-15T11:53:17.278Z,2.87
2022-09-15T11:55:49.608Z,6.20
2022-09-15T11:58:50.905Z,6.43
2022-09-15T12:01:21.449Z,7.43
2022-09-15T12:04:23.898Z,5.60
2022-09-15T12:06:57.190Z,5.47
2022-09-15T12:09:44.395Z,5.47
2022-09-15T12:12:20.539Z,7.03
2022-09-15T12:14:49.312Z,4.63
2022-09-15T12:17:30.120Z,5.00
2022-09-15T12:20:16.112Z,7.33
2022-09-15T12:23:00.211Z,10.77
2022-09-15T12:25:34.827Z,3.50
2022-09-15T12:28:23.777Z,3.90
2022-09-15T12:31:22.936Z,8.13
2022-09-15T12:34:00.934Z,10.10
2022-09-15T12:36:47.323Z,6.50
2022-09-15T12:39:37.199Z,4.10
2022-09-15T12:42:31.427Z,10.83
2022-09-15T12:45:24.755Z,6.30
2022-09-15T12:48:15.428Z,8.53
2022-09-15T12:50:51.623Z,8.23
2022-09-15T12:56:08.128Z,5.20
2022-09-15T12:58:41.335Z,4.10
2022-09-15T13:01:23.601Z,8.23
2022-09-15T13:03:50.910Z,4.00
2022-09-15T13:06:30.896Z,8.33
2022-09-15T13:09:06.492Z,10.07
2022-09-15T13:14:14.769Z,5.10
2022-09-15T13:16:41.790Z,8.80
2022-09-15T13:19:33.003Z,5.63
2022-09-15T13:22:12.129Z,6.73
2022-09-15T13:24:59.262Z,4.47
2022-09-15T13:27:36.190Z,3.77
2022-09-15T13:30:21.552Z,6.30
2022-09-15T13:32:56.810Z,5.00
2022-09-15T13:35:58.455Z,10.83
2022-09-15T13:38:49.379Z,13.57
2022-09-15T13:41:42.765Z,3.40
2022-09-15T13:44:21.523Z,7.43
2022-09-15T13:46:58.501Z,3.40
2022-09-15T13:49:47.140Z,4.60
2022-09-15T13:52:22.829Z,6.17
2022-09-15T13:55:15.035Z,4.50
2022-09-15T14:00:48.218Z,6.80
2022-09-15T14:03:24.303Z,3.83
2022-09-15T14:05:52.146Z,6.03
2022-09-15T14:08:27.137Z,5.97
2022-09-15T14:11:06.806Z,6.03
2022-09-15T14:13:36.269Z,4.97
2022-09-15T14:16:25.772Z,4.63
2022-09-15T14:18:55.099Z,10.27
2022-09-15T14:21:24.396Z,9.70
2022-09-15T14:23:53.841Z,5.43
2022-09-15T14:26:24.792Z,7.00
2022-09-15T14:29:00.920Z,6.43
2022-09-15T14:31:47.390Z,7.30
2022-09-15T14:34:18.723Z,6.67
2022-09-15T14:36:46.403Z,5.67
2022-09-15T14:39:18.416Z,9.83
2022-09-15T14:41:46.286Z,4.20
2022-09-15T14:47:26.433Z,5.23
2022-09-15T14:50:14.127Z,9.63
2022-09-15T14:52:44.034Z,5.00
2022-09-15T14:55:30.209Z,2.60
2022-09-15T14:58:24.480Z,4.90
2022-09-15T15:01:03.863Z,5.47
2022-09-15T15:03:51.940Z,3.30
2022-09-15T15:06:30.077Z,3.13
2022-09-15T15:09:00.359Z,3.13
2022-09-15T15:11:29.210Z,4.93
2022-09-15T15:13:57.637Z,4.90
2022-09-15T15:16:27.991Z,3.53
2022-09-15T15:18:57.483Z,4.37
2022-09-15T15:21:39.483Z,2.53
2022-09-15T15:24:15.531Z,2.63
2022-09-15T15:26:48.317Z,4.53
2022-09-15T15:29:38.528Z,3.00
2022-09-15T15:32:09.919Z,4.40
2022-09-15T15:34:37.048Z,4.17
2022-09-15T15:37:07.248Z,2.50
2022-09-15T15:39:35.055Z,5.03
2022-09-15T15:42:04.913Z,4.07
2022-09-15T15:44:32.555Z,4.47
2022-09-15T15:47:12.101Z,4.50
2022-09-15T15:49:46.227Z,5.60
2022-09-15T15:52:23.300Z,4.00
2022-09-15T15:54:50.331Z,3.40
2022-09-15T15:57:25.965Z,3.03
2022-09-15T15:59:57.155Z,3.27
2022-09-15T16:02:25.518Z,6.00
2022-09-15T16:04:57.304Z,3.50
2022-09-15T16:07:29.906Z,4.60
2022-09-15T16:10:00.597Z,10.70
2022-09-15T16:12:30.717Z,4.60
2022-09-15T16:15:00.289Z,3.63
2022-09-15T16:17:27.103Z,4.50
2022-09-15T16:19:54.144Z,3.30
2022-09-15T16:22:21.127Z,2.37
2022-09-15T16:24:50.622Z,4.47
2022-09-15T16:27:18.334Z,4.27
2022-09-15T16:29:45.585Z,5.23
2022-09-15T16:32:22.222Z,7.17
2022-09-15T16:34:52.157Z,4.80
2022-09-15T16:37:18.854Z,10.63
2022-09-15T16:39:45.808Z,3.47
2022-09-15T16:42:12.497Z,9.37
2022-09-15T16:44:40.228Z,9.37
2022-09-15T16:47:07.258Z,10.67
2022-09-15T16:49:37.848Z,2.50
2022-09-15T16:52:04.640Z,5.07
2022-09-15T16:54:31.766Z,5.60
2022-09-15T16:56:58.465Z,5.30
2022-09-15T17:02:13.506Z,3.83
2022-09-15T17:04:40.628Z,7.93
2022-09-15T17:07:07.326Z,5.07
2022-09-15T17:09:34.102Z,4.30
2022-09-15T17:12:00.836Z,8.20
2022-09-15T17:14:27.568Z,5.00
2022-09-15T17:16:54.500Z,3.33
2022-09-15T17:19:21.412Z,3.50
2022-09-15T17:21:50.255Z,3.50
2022-09-15T17:24:17.960Z,3.70
2022-09-15T17:26:44.611Z,8.00
2022-09-15T17:29:11.737Z,5.80
2022-09-15T17:31:38.471Z,4.53
2022-09-15T17:34:10.038Z,3.40
2022-09-15T17:36:37.817Z,3.50
2022-09-15T17:39:04.498Z,2.73
2022-09-15T17:41:32.071Z,6.73
2022-09-15T17:43:59.511Z,4.67
2022-09-15T17:46:26.349Z,4.23
2022-09-15T17:48:53.072Z,4.00
2022-09-15T17:51:19.774Z,5.83
2022-09-15T17:53:47.678Z,7.97
2022-09-15T17:56:15.015Z,3.80
2022-09-15T17:58:43.316Z,7.40
2022-09-15T18:01:13.856Z,6.07
2022-09-15T18:03:43.424Z,4.43
2022-09-15T18:06:11.546Z,3.20
2022-09-15T18:08:38.464Z,3.53
2022-09-15T18:11:07.052Z,4.13
2022-09-15T18:13:34.514Z,2.93
2022-09-15T18:16:06.546Z,6.43
2022-09-15T18:18:33.698Z,5.57
2022-09-15T18:21:00.704Z,6.90
2022-09-15T18:23:29.599Z,3.83
2022-09-15T18:25:57.054Z,8.80
2022-09-15T18:28:23.748Z,6.70
2022-09-15T18:30:51.353Z,4.50
2022-09-15T18:33:28.282Z,3.13
2022-09-15T18:35:59.107Z,3.03
2022-09-15T18:38:26.445Z,3.10
2022-09-15T18:40:56.346Z,2.63
2022-09-15T18:43:26.429Z,3.77
2022-09-15T18:46:03.256Z,3.07
2022-09-15T18:48:31.580Z,4.60
2022-09-15T18:50:59.481Z,5.63
2022-09-15T18:53:27.422Z,3.60
2022-09-15T18:55:54.520Z,7.70
2022-09-15T18:58:22.856Z,2.50
2022-09-15T19:00:50.488Z,8.73
2022-09-15T19:03:17.697Z,5.13
2022-09-15T19:05:46.109Z,6.80
2022-09-15T19:08:13.375Z,4.20
2022-09-15T19:10:44.193Z,3.53
2022-09-15T19:13:14.616Z,4.93
2022-09-15T19:15:42.047Z,7.25
2022-09-15T19:18:09.312Z,3.63
2022-09-15T19:20:36.032Z,5.20
2022-09-15T19:23:03.068Z,6.40
2022-09-15T19:25:30.107Z,3.17
2022-09-15T19:27:57.083Z,2.85
2022-09-15T19:30:24.285Z,4.45
2022-09-15T19:32:51.390Z,2.88
2022-09-15T19:35:18.605Z,14.98
2022-09-15T19:37:45.282Z,6.25
2022-09-15T19:40:14.472Z,5.30
2022-09-15T19:42:42.777Z,7.55
2022-09-15T19:45:11.543Z,3.40
2022-09-15T19:47:39.473Z,8.80
2022-09-15T19:50:08.646Z,6.32
2022-09-15T19:52:36.105Z,9.85
2022-09-15T19:55:05.412Z,10.85
2022-09-15T19:57:32.110Z,4.57
2022-09-15T19:59:58.867Z,6.07
2022-09-15T20:02:25.633Z,3.78
2022-09-15T20:04:53.056Z,4.25
2022-09-15T20:07:20.452Z,4.47
2022-09-15T20:09:47.538Z,4.07
2022-09-15T20:12:14.303Z,6.85
2022-09-15T20:14:41.504Z,7.68
2022-09-15T20:17:09.323Z,4.75
2022-09-15T20:19:37.376Z,4.00
2022-09-15T20:22:04.988Z,5.53
2022-09-15T20:24:31.642Z,4.28
2022-09-15T20:26:59.858Z,3.90
2022-09-15T20:29:26.539Z,4.07
2022-09-15T20:31:54.511Z,3.40
2022-09-15T20:34:21.243Z,4.68
2022-09-15T20:36:47.969Z,5.68
2022-09-15T20:39:15.436Z,4.47
2022-09-15T20:41:47.044Z,4.70
2022-09-15T20:44:14.778Z,5.70
2022-09-15T20:46:41.977Z,4.68
2022-09-15T20:49:09.716Z,5.28
2022-09-15T20:51:42.868Z,5.63
2022-09-15T20:54:10.897Z,5.18
2022-09-15T20:56:38.694Z,3.70
2022-09-15T20:59:10.267Z,8.88
2022-09-15T21:01:39.211Z,5.57
2022-09-15T21:04:07.958Z,4.57
2022-09-15T21:06:35.684Z,3.78
2022-09-15T21:09:03.059Z,4.70
2022-09-15T21:11:30.321Z,8.55
2022-09-15T21:13:58.025Z,3.97
2022-09-15T21:16:28.386Z,2.90
2022-09-15T21:18:57.096Z,5.07
2022-09-15T21:21:26.802Z,2.92
2022-09-15T21:23:55.885Z,3.78
2022-09-15T21:26:24.727Z,3.97
2022-09-15T21:28:52.564Z,4.28
2022-09-15T21:31:28.142Z,5.13
2022-09-15T21:33:56.017Z,3.42
2022-09-15T21:36:40.730Z,3.92
2022-09-15T21:39:07.503Z,4.63
2022-09-15T21:41:34.158Z,6.10
2022-09-15T21:44:01.409Z,6.78
2022-09-15T21:46:30.365Z,2.72
2022-09-15T21:48:59.291Z,4.95
2022-09-15T21:51:28.454Z,3.95
2022-09-15T21:53:57.422Z,3.40
2022-09-15T21:56:25.601Z,7.35
2022-09-15T21:58:52.760Z,3.08
2022-09-15T22:01:22.569Z,3.20
2022-09-15T22:03:53.334Z,6.15
2022-09-15T22:06:22.839Z,6.53
2022-09-15T22:08:49.881Z,5.13
2022-09-15T22:11:16.626Z,4.05
2022-09-15T22:13:45.197Z,5.93
2022-09-15T22:16:14.945Z,3.97
2022-09-15T22:18:43.096Z,5.00
2022-09-15T22:21:17.014Z,3.95
2022-09-15T22:23:46.087Z,7.07
2022-09-15T22:26:25.725Z,4.93
2022-09-15T22:28:53.029Z,6.30
2022-09-15T22:31:21.403Z,3.53
2022-09-15T22:33:50.332Z,3.85
2022-09-15T22:36:21.007Z,7.15
2022-09-15T22:38:50.212Z,4.32
2022-09-15T22:41:19.230Z,3.65
2022-09-15T22:43:48.058Z,11.32
2022-09-15T22:46:17.852Z,7.28
2022-09-15T22:48:45.516Z,3.75
2022-09-15T22:51:12.958Z,4.13
2022-09-15T22:53:40.051Z,3.30
2022-09-15T22:56:10.256Z,4.40
2022-09-15T22:58:37.525Z,3.13
2022-09-15T23:01:11.363Z,6.25
2022-09-15T23:03:38.580Z,5.25
2022-09-15T23:06:06.601Z,2.92
2022-09-15T23:08:34.031Z,14.32
2022-09-15T23:11:07.427Z,3.85
2022-09-15T23:13:34.706Z,4.90
2022-09-15T23:16:02.228Z,4.30
2022-09-15T23:18:30.012Z,2.60
2022-09-15T23:21:03.550Z,2.78
2022-09-15T23:23:30.275Z,2.95
2022-09-15T23:25:57.576Z,2.80
2022-09-15T23:28:24.772Z,3.28
2022-09-15T23:30:57.353Z,6.90
2022-09-15T23:33:25.916Z,7.15
2022-09-15T23:35:52.810Z,3.17
2022-09-15T23:38:20.832Z,2.72
2022-09-15T23:40:49.645Z,3.28
2022-09-15T23:43:17.364Z,2.17
2022-09-15T23:45:45.699Z,3.35
2022-09-15T23:48:13.992Z,3.28
2022-09-15T23:50:41.757Z,3.10
2022-09-15T23:53:09.385Z,5.88
2022-09-15T23:55:36.162Z,2.85
2022-09-15T23:58:04.428Z,2.65
